Terminal Aerodrome Forecast
Issued by NWS Twin Cities, MN

Home | Current Version | Previous Version | Text Only | Print | Product List | Glossary Off
Versions: 1 2 3 4 5 6 7 8 9 10 11 12 13 14 15

000
FTUS43 KMPX 231100 RRA
TAFSTC
TAF
KSTC 231141Z 2312/2412 03009KT 6SM BR OVC011
     FM231600 36011KT 3SM -SN BR OVC007
     FM240300 33011KT 4SM BR OVC006=

USA.gov is the U.S. government's official web portal to all federal, state and local government web resources and services.